SBCJ

Carajás Airport

Carajás, Brazil
TAF SBCJ 201000Z 2012/2024 07002KT CAVOK TN26/2012Z TX31/2017Z BECMG 2013/2015 12005KT 9999 SCT025 BECMG 2019/2021 00000KT CAVOK RMK PDY
Issued Valid From Valid To
Jul-20 @ 10:00 UTC
(5 hours ago)
Jul-20 @ 12:00 UTC
(3 hours ago)
Jul-21 @ 00:00 UTC
(in 9 hours)
Expired Click to View Jul-20 @ 12:00 to Jul-20 @ 13:00
TAF SBCJ 201000Z 2012/2024 07002KT CAVOK TN26/2012Z TX31/2017Z
Wind Visibility Clouds
70° at 2 knots 10,000+ meters
  • No significant clouds
Becoming Jul-20 @ 13:00 to Jul-20 @ 19:00
BECMG 2013/2015 12005KT 9999 SCT025
Wind Visibility Clouds
120° at 5 knots 10,000+ meters
  • Scattered at 2,500' AGL
Becoming Jul-20 @ 19:00 to Jul-21 @ 00:00
BECMG 2019/2021 00000KT CAVOK RMK PDY
Visibility Clouds Conditions
10,000+ meters
  • No significant clouds
TAF SBCJ 201000Z 2012/2024 07002KT CAVOK TN26/2012Z TX31/2017Z BECMG 2013/2015 12005KT 9999 SCT025 BECMG 2019/2021 00000KT CAVOK RMK PDY
Issued Jul-20 @ 10:00 UTC
(5 hours ago)
Valid From Jul-20 @ 12:00 UTC
(3 hours ago)
Valid To Jul-21 @ 00:00 UTC
(in 9 hours)
Jul-20 @ 12:00 - Jul-20 @ 13:00
Wind Visibility
70° at 2 knots 10,000+ meters
Clouds
  • No significant clouds
Becoming Jul-20 @ 13:00 - Jul-20 @ 19:00
Wind Visibility
120° at 5 knots 10,000+ meters
Clouds
  • Scattered at 2,500' AGL
Becoming Jul-20 @ 19:00 - Jul-21 @ 00:00
Clouds
  • No significant clouds
Conditions